»·PEaware :: DAL2690 KSLC-KPDX

DAL2690 :: KSLC-KPDX

FLIGHT INFORMATION

Flight Status: Arrived
Operator:
Delta Air Lines
More flights by this operator :: More flights under this callsign
Pilot: Joe P. (13940)
Aircraft: BOEING 737-700
(B737)
More flights by this aircraft type
Origin: KSLC Salt Lake City Intl
United States
Destination: KPDX Portland Intl
United States
More flights between these airports :: More routes between these airports
Route: CGULL1 TWF J15 BOI J163 BKE JOTBA HHOOD4
File this flight plan on PilotEdge
Remarks: KSEA -PBN / A1B1C1D1L1O1S1 NAV / RNVD1E2A1 DOF / 181206 REG / N389DA EET / KZSE0056 RVR / 200 PER / C
Altitude:
(Current/Filed)
380ft
Speed:
(Current/Filed)
446kts
Departed: 06-Dec-18 08:51 AM
Arrived: 06-Dec-18 10:29 AM
Distance/Time
Traveled:
546nm/1:38
Distance/Time
To Go:
Arrived

Flight Plot

Page will automatically refresh every two minutes.

Flight plan parsing failed; only flown route is shown


Map Options




Map Legend


Flown Route
Filed Route
Departure Airport
Arrival Airport
Navaid (VOR, NDB)
Fix

Horizontal Profiles

Position Reports

Time Latitude Longitude Heading Altitude Ground
Speed
06-Dec-18 07:47 40.788533 -111.980747 280 4235ft 0kts
06-Dec-18 07:48 40.788533 -111.980747 280 4235ft 0kts
06-Dec-18 07:49 40.788533 -111.980747 280 4235ft 0kts
06-Dec-18 07:50 40.788533 -111.980747 280 4235ft 0kts
06-Dec-18 07:51 40.788533 -111.980747 280 4235ft 0kts
06-Dec-18 07:52 40.788533 -111.980747 280 4235ft 0kts
06-Dec-18 07:53 40.788533 -111.980747 280 4235ft 0kts
06-Dec-18 07:54 40.788533 -111.980747 280 4235ft 0kts
06-Dec-18 07:55 40.788533 -111.980747 280 4235ft 0kts
06-Dec-18 07:56 40.788533 -111.980747 280 4235ft 0kts
06-Dec-18 07:57 40.788533 -111.980747 280 4235ft 0kts
06-Dec-18 07:58 40.788533 -111.980747 280 4235ft 0kts
06-Dec-18 07:59 40.788533 -111.980747 280 4235ft 0kts
06-Dec-18 08:00 40.788533 -111.980747 280 4235ft 0kts
06-Dec-18 08:01 40.788533 -111.980747 280 4235ft 0kts
06-Dec-18 08:02 40.788533 -111.980747 280 4235ft 0kts
06-Dec-18 08:03 40.788533 -111.980747 280 4235ft 0kts
06-Dec-18 08:04 40.788533 -111.980747 280 4235ft 0kts
06-Dec-18 08:05 40.788533 -111.980747 280 4235ft 0kts
06-Dec-18 08:06 40.788533 -111.980747 280 4235ft 0kts
06-Dec-18 08:07 40.788533 -111.980747 280 4235ft 0kts
06-Dec-18 08:08 40.788533 -111.980747 280 4235ft 0kts
06-Dec-18 08:09 40.788533 -111.980747 280 4235ft 0kts
06-Dec-18 08:10 40.788533 -111.980747 280 4235ft 0kts
06-Dec-18 08:11 40.788533 -111.980747 280 4235ft 0kts
06-Dec-18 08:12 40.788533 -111.980747 280 4235ft 0kts
06-Dec-18 08:13 40.788533 -111.980747 280 4235ft 0kts
06-Dec-18 08:14 40.788533 -111.980747 280 4235ft 0kts
06-Dec-18 08:15 40.788533 -111.980747 280 4235ft 0kts
06-Dec-18 08:16 40.788533 -111.980747 280 4235ft 0kts
06-Dec-18 08:17 40.788533 -111.980747 280 4235ft 0kts
06-Dec-18 08:18 40.788533 -111.980747 280 4235ft 0kts
06-Dec-18 08:19 40.788533 -111.980747 280 4235ft 0kts
06-Dec-18 08:20 40.788533 -111.980747 280 4235ft 0kts
06-Dec-18 08:21 40.788533 -111.980747 280 4235ft 0kts
06-Dec-18 08:22 40.788533 -111.980747 280 4235ft 0kts
06-Dec-18 08:23 40.788533 -111.980747 280 4235ft 0kts
06-Dec-18 08:24 40.788533 -111.980747 280 4235ft 0kts
06-Dec-18 08:25 40.788533 -111.980747 280 4235ft 0kts
06-Dec-18 08:26 40.788533 -111.980747 280 4235ft 0kts
06-Dec-18 08:27 40.788533 -111.980747 280 4235ft 0kts
06-Dec-18 08:28 40.788533 -111.980747 280 4235ft 0kts
06-Dec-18 08:29 40.788533 -111.980747 280 4235ft 0kts
06-Dec-18 08:30 40.788533 -111.980747 280 4235ft 0kts
06-Dec-18 08:31 40.788508 -111.980577 280 4235ft 2kts
06-Dec-18 08:32 40.788385 -111.979739 280 4235ft 2kts
06-Dec-18 08:33 40.788362 -111.979584 280 4235ft 0kts
06-Dec-18 08:34 40.788362 -111.979584 280 4235ft 0kts
06-Dec-18 08:35 40.788362 -111.979584 280 4235ft 0kts
06-Dec-18 08:36 40.788362 -111.979584 280 4235ft 0kts
06-Dec-18 08:37 40.788362 -111.979584 280 4235ft 0kts
06-Dec-18 08:38 40.788363 -111.979585 280 4234ft 0kts
06-Dec-18 08:39 40.788363 -111.979587 280 4234ft 0kts
06-Dec-18 08:40 40.788363 -111.979588 280 4234ft 0kts
06-Dec-18 08:41 40.788363 -111.979591 280 4234ft 0kts
06-Dec-18 08:42 40.789762 -111.977915 88 4234ft 10kts
06-Dec-18 08:43 40.788798 -111.976986 174 4234ft 5kts
06-Dec-18 08:44 40.785448 -111.976607 174 4235ft 16kts
06-Dec-18 08:45 40.780432 -111.975954 175 4234ft 16kts
06-Dec-18 08:46 40.776339 -111.975124 174 4234ft 14kts
06-Dec-18 08:47 40.774495 -111.974744 112 4234ft 0kts
06-Dec-18 08:48 40.774494 -111.974738 111 4234ft 0kts
06-Dec-18 08:49 40.774773 -111.973583 67 4234ft 9kts
06-Dec-18 08:50 40.787721 -111.974557 354 4235ft 158kts
06-Dec-18 08:51 40.834401 -111.988632 332 7344ft 170kts
06-Dec-18 08:52 40.886846 -112.026417 322 8445ft 258kts
06-Dec-18 08:53 40.928014 -112.105756 299 11571ft 265kts
06-Dec-18 08:54 40.966298 -112.191620 298 14144ft 284kts
06-Dec-18 08:55 41.011182 -112.292976 298 15124ft 353kts
06-Dec-18 08:56 41.065369 -112.409519 308 17007ft 382kts
06-Dec-18 08:57 41.151966 -112.495370 327 19116ft 398kts
06-Dec-18 08:58 41.242328 -112.583338 320 21025ft 408kts
06-Dec-18 08:59 41.325595 -112.688658 310 22939ft 418kts
06-Dec-18 09:00 41.404817 -112.805346 310 24749ft 430kts
06-Dec-18 09:01 41.484420 -112.927210 309 26364ft 441kts
06-Dec-18 09:02 41.565540 -113.052200 309 27783ft 451kts
06-Dec-18 09:03 41.648521 -113.180171 309 29034ft 460kts
06-Dec-18 09:04 41.732515 -113.309660 309 30504ft 460kts
06-Dec-18 09:05 41.815690 -113.438858 309 32026ft 456kts
06-Dec-18 09:06 41.898122 -113.567547 309 33443ft 452kts
06-Dec-18 09:07 41.979586 -113.694985 309 34751ft 449kts
06-Dec-18 09:08 42.060488 -113.822315 308 35937ft 446kts
06-Dec-18 09:09 42.140614 -113.949386 308 37048ft 443kts
06-Dec-18 09:11 42.220384 -114.075796 308 38074ft 440kts
06-Dec-18 09:12 42.300112 -114.201953 308 38267ft 441kts
06-Dec-18 09:13 42.379181 -114.327831 308 38269ft 440kts
06-Dec-18 09:14 42.458129 -114.454472 308 38269ft 439kts
06-Dec-18 09:15 42.537934 -114.579397 309 38270ft 439kts
06-Dec-18 09:16 42.618460 -114.704414 309 38275ft 439kts
06-Dec-18 09:17 42.698464 -114.829363 309 38278ft 438kts
06-Dec-18 09:18 42.778928 -114.954413 309 38286ft 438kts
06-Dec-18 09:19 42.858807 -115.079508 309 38293ft 438kts
06-Dec-18 09:20 42.938401 -115.204891 309 38303ft 437kts
06-Dec-18 09:21 43.017771 -115.330519 309 38313ft 437kts
06-Dec-18 09:22 43.097297 -115.456963 309 38330ft 437kts
06-Dec-18 09:23 43.176313 -115.583150 309 38342ft 437kts
06-Dec-18 09:24 43.255105 -115.709529 309 38344ft 436kts
06-Dec-18 09:25 43.331629 -115.832807 309 38346ft 435kts
06-Dec-18 09:26 43.410388 -115.959708 309 38350ft 435kts
06-Dec-18 09:27 43.488322 -116.086656 309 38356ft 435kts
06-Dec-18 09:28 43.568545 -116.211200 316 38360ft 435kts
06-Dec-18 09:29 43.659030 -116.322010 317 38367ft 435kts
06-Dec-18 09:30 43.749476 -116.433135 317 38379ft 435kts
06-Dec-18 09:31 43.840097 -116.544622 317 38393ft 435kts
06-Dec-18 09:31 43.915446 -116.637306 317 38406ft 435kts
06-Dec-18 09:33 44.020973 -116.768056 317 38418ft 434kts
06-Dec-18 09:33 44.095588 -116.860992 317 38422ft 432kts
06-Dec-18 09:34 44.184818 -116.972596 317 38420ft 431kts
06-Dec-18 09:36 44.288809 -117.103280 317 38405ft 431kts
06-Dec-18 09:36 44.363259 -117.197244 317 38389ft 431kts
06-Dec-18 09:37 44.451892 -117.309555 317 38363ft 430kts
06-Dec-18 09:38 44.540656 -117.422516 317 38341ft 430kts
06-Dec-18 09:39 44.629386 -117.535627 317 38325ft 430kts
06-Dec-18 09:40 44.717660 -117.648890 316 38320ft 430kts
06-Dec-18 09:41 44.805732 -117.762838 315 38318ft 429kts
06-Dec-18 09:42 44.853612 -117.913436 282 38320ft 430kts
06-Dec-18 09:43 44.875777 -118.079954 281 38316ft 431kts
06-Dec-18 09:44 44.897095 -118.245946 281 38308ft 430kts
06-Dec-18 09:45 44.918749 -118.411884 281 38298ft 429kts
06-Dec-18 09:46 44.939946 -118.577511 281 38291ft 429kts
06-Dec-18 09:47 44.960764 -118.743481 280 38276ft 429kts
06-Dec-18 09:48 44.981334 -118.909943 280 38276ft 429kts
06-Dec-18 09:49 45.001528 -119.075581 280 38310ft 428kts
06-Dec-18 09:50 45.021510 -119.241613 280 38318ft 428kts
06-Dec-18 09:51 45.041259 -119.407830 280 38318ft 428kts
06-Dec-18 09:52 45.060794 -119.574406 280 38324ft 428kts
06-Dec-18 09:53 45.080003 -119.740364 280 38330ft 428kts
06-Dec-18 09:54 45.099052 -119.907136 280 38334ft 428kts
06-Dec-18 09:55 45.117699 -120.072292 280 36448ft 424kts
06-Dec-18 09:56 45.136469 -120.238343 279 33723ft 428kts
06-Dec-18 09:57 45.154519 -120.404885 278 31247ft 423kts
06-Dec-18 09:58 45.184720 -120.562440 295 29210ft 411kts
06-Dec-18 09:59 45.237785 -120.703298 298 27254ft 399kts
06-Dec-18 10:00 45.290368 -120.839682 298 25343ft 389kts
06-Dec-18 10:01 45.341186 -120.973199 297 23467ft 379kts
06-Dec-18 10:02 45.390803 -121.103889 298 21612ft 370kts
06-Dec-18 10:03 45.435124 -121.234254 287 19785ft 362kts
06-Dec-18 10:04 45.461801 -121.370851 285 18191ft 349kts
06-Dec-18 10:05 45.487725 -121.501703 285 16689ft 338kts
06-Dec-18 10:06 45.512771 -121.629355 285 15264ft 325kts
06-Dec-18 10:07 45.531320 -121.748705 273 14550ft 295kts
06-Dec-18 10:08 45.534992 -121.863475 272 13518ft 287kts
06-Dec-18 10:09 45.541759 -121.976201 283 12557ft 286kts
06-Dec-18 10:10 45.565961 -122.090337 285 10204ft 306kts
06-Dec-18 10:11 45.589862 -122.204980 285 8879ft 284kts
06-Dec-18 10:12 45.610601 -122.305328 285 8452ft 248kts
06-Dec-18 10:13 45.629911 -122.399119 285 7665ft 243kts
06-Dec-18 10:14 45.651339 -122.488375 297 6724ft 232kts
06-Dec-18 10:15 45.680838 -122.568616 298 5892ft 224kts
06-Dec-18 10:16 45.709188 -122.646933 298 5060ft 220kts
06-Dec-18 10:17 45.736001 -122.720951 298 4998ft 197kts
06-Dec-18 10:18 45.759956 -122.787506 298 4974ft 184kts
06-Dec-18 10:19 45.784532 -122.856347 297 3662ft 199kts
06-Dec-18 10:20 45.763549 -122.901047 179 3012ft 158kts
06-Dec-18 10:21 45.721793 -122.887222 147 3030ft 156kts
06-Dec-18 10:22 45.691569 -122.846336 117 3017ft 152kts
06-Dec-18 10:23 45.671533 -122.792700 118 3083ft 148kts
06-Dec-18 10:24 45.651796 -122.740875 118 2403ft 152kts
06-Dec-18 10:25 45.631285 -122.689616 118 1023ft 136kts
06-Dec-18 10:26 45.613884 -122.645125 116 668ft 126kts
06-Dec-18 10:27 45.597064 -122.601583 117 106ft 122kts
06-Dec-18 10:28 45.589018 -122.581958 197 26ft 0kts
06-Dec-18 10:29 45.589016 -122.581959 197 26ft 0kts
06-Dec-18 10:30 45.588644 -122.582192 206 26ft 11kts
06-Dec-18 10:31 45.587945 -122.583773 294 26ft 9kts
06-Dec-18 10:32 45.589081 -122.586772 300 26ft 14kts
06-Dec-18 10:33 45.590113 -122.589380 298 26ft 0kts
06-Dec-18 10:34 45.591517 -122.593050 299 26ft 9kts
06-Dec-18 10:35 45.591271 -122.594141 203 26ft 0kts
06-Dec-18 10:36 45.591270 -122.594142 203 26ft 0kts
06-Dec-18 10:37 45.591270 -122.594142 203 26ft 0kts
06-Dec-18 10:38 45.591270 -122.594142 203 26ft 0kts
06-Dec-18 10:39 45.591270 -122.594142 203 26ft 0kts
06-Dec-18 10:40 45.591270 -122.594142 203 26ft 0kts
06-Dec-18 10:41 45.591270 -122.594142 203 26ft 0kts
06-Dec-18 10:42 45.591270 -122.594142 203 26ft 0kts

Navigation Log

Ident Type
Flight plan parsing failed, navigation log unavailable